Air Navigation Services of Czech Republic
Airport: LKNA Updated:  01.04.2020 02:30:26  UTC
 METAR LKNA 01.04. 02:30 ...
METAR LKNA 010230Z 33003KT CAVOK M05/M07 Q1023 RMK BLU=
 TAF LKNA 31.03. 23:00 ...
TAF LKNA 312300Z 0100/0200 01004KT CAVOK      BECMG 0110/0112 21006KT=